sensor_id;sensor_type;location;lat;lon;timestamp;temperature;humidity
63537;DHT22;49686;51.880;5.632;2023-07-16T00:00:59;16.30;99.90
63537;DHT22;49686;51.880;5.632;2023-07-16T00:03:27;16.30;99.90
63537;DHT22;49686;51.880;5.632;2023-07-16T00:05:54;16.30;99.90
63537;DHT22;49686;51.880;5.632;2023-07-16T00:08:21;16.30;99.90
63537;DHT22;49686;51.880;5.632;2023-07-16T00:10:48;16.30;99.90
63537;DHT22;49686;51.880;5.632;2023-07-16T00:13:15;16.30;99.90
63537;DHT22;49686;51.880;5.632;2023-07-16T00:15:41;16.30;99.90
63537;DHT22;49686;51.880;5.632;2023-07-16T00:18:08;16.30;99.90
63537;DHT22;49686;51.880;5.632;2023-07-16T00:20:36;16.30;99.90
63537;DHT22;49686;51.880;5.632;2023-07-16T00:23:03;16.30;99.90
63537;DHT22;49686;51.880;5.632;2023-07-16T00:25:30;16.30;99.90
63537;DHT22;49686;51.880;5.632;2023-07-16T00:27:57;16.20;99.90
63537;DHT22;49686;51.880;5.632;2023-07-16T00:30:24;16.20;99.90
63537;DHT22;49686;51.880;5.632;2023-07-16T00:32:51;16.30;99.90
63537;DHT22;49686;51.880;5.632;2023-07-16T00:35:18;16.30;99.90
63537;DHT22;49686;51.880;5.632;2023-07-16T00:37:46;16.30;99.90
63537;DHT22;49686;51.880;5.632;2023-07-16T00:40:13;16.20;99.90
63537;DHT22;49686;51.880;5.632;2023-07-16T00:42:40;16.20;99.90
63537;DHT22;49686;51.880;5.632;2023-07-16T00:45:11;16.20;99.90
63537;DHT22;49686;51.880;5.632;2023-07-16T00:47:38;16.10;99.90
63537;DHT22;49686;51.880;5.632;2023-07-16T00:50:07;16.10;99.90
63537;DHT22;49686;51.880;5.632;2023-07-16T00:52:34;16.20;99.90
63537;DHT22;49686;51.880;5.632;2023-07-16T00:55:03;16.30;99.90
63537;DHT22;49686;51.880;5.632;2023-07-16T00:57:30;16.50;99.90
63537;DHT22;49686;51.880;5.632;2023-07-16T00:59:57;16.60;99.90
63537;DHT22;49686;51.880;5.632;2023-07-16T01:02:24;16.60;99.90
63537;DHT22;49686;51.880;5.632;2023-07-16T01:04:51;16.60;99.90
63537;DHT22;49686;51.880;5.632;2023-07-16T01:07:20;16.60;99.90
63537;DHT22;49686;51.880;5.632;2023-07-16T01:09:49;16.60;99.90
63537;DHT22;49686;51.880;5.632;2023-07-16T01:12:20;16.60;99.90
63537;DHT22;49686;51.880;5.632;2023-07-16T01:14:47;16.50;99.90
63537;DHT22;49686;51.880;5.632;2023-07-16T01:17:14;16.40;99.90
63537;DHT22;49686;51.880;5.632;2023-07-16T01:19:41;16.30;99.90
63537;DHT22;49686;51.880;5.632;2023-07-16T01:22:27;16.30;99.90
63537;DHT22;49686;51.880;5.632;2023-07-16T01:25:05;16.20;99.90
63537;DHT22;49686;51.880;5.632;2023-07-16T01:27:58;16.00;99.90
63537;DHT22;49686;51.880;5.632;2023-07-16T01:30:27;15.90;99.90
63537;DHT22;49686;51.880;5.632;2023-07-16T01:32:55;15.80;99.90
63537;DHT22;49686;51.880;5.632;2023-07-16T01:35:22;15.60;99.90
63537;DHT22;49686;51.880;5.632;2023-07-16T01:37:49;15.60;99.90
63537;DHT22;49686;51.880;5.632;2023-07-16T01:40:16;15.50;99.90
63537;DHT22;49686;51.880;5.632;2023-07-16T01:42:43;15.50;99.90
63537;DHT22;49686;51.880;5.632;2023-07-16T01:45:10;15.40;99.90
63537;DHT22;49686;51.880;5.632;2023-07-16T01:47:49;15.40;99.90
63537;DHT22;49686;51.880;5.632;2023-07-16T01:50:17;15.40;99.90
63537;DHT22;49686;51.880;5.632;2023-07-16T01:52:44;15.40;99.90
63537;DHT22;49686;51.880;5.632;2023-07-16T01:55:10;15.40;99.90
63537;DHT22;49686;51.880;5.632;2023-07-16T01:57:37;15.40;99.90
63537;DHT22;49686;51.880;5.632;2023-07-16T02:00:05;15.40;99.90
63537;DHT22;49686;51.880;5.632;2023-07-16T02:02:32;15.30;99.90
63537;DHT22;49686;51.880;5.632;2023-07-16T02:05:00;15.30;99.90
63537;DHT22;49686;51.880;5.632;2023-07-16T02:07:27;15.30;99.90
63537;DHT22;49686;51.880;5.632;2023-07-16T02:09:54;15.30;99.90
63537;DHT22;49686;51.880;5.632;2023-07-16T02:12:21;15.30;99.90
63537;DHT22;49686;51.880;5.632;2023-07-16T02:14:48;15.30;99.90
63537;DHT22;49686;51.880;5.632;2023-07-16T02:17:14;15.30;99.90
63537;DHT22;49686;51.880;5.632;2023-07-16T02:19:41;15.30;99.90
63537;DHT22;49686;51.880;5.632;2023-07-16T02:22:09;15.30;99.90
63537;DHT22;49686;51.880;5.632;2023-07-16T02:24:36;15.20;99.90
63537;DHT22;49686;51.880;5.632;2023-07-16T02:27:04;15.20;99.90
63537;DHT22;49686;51.880;5.632;2023-07-16T02:29:32;15.10;99.90
63537;DHT22;49686;51.880;5.632;2023-07-16T02:31:58;15.10;99.90
63537;DHT22;49686;51.880;5.632;2023-07-16T02:34:25;15.00;99.90
63537;DHT22;49686;51.880;5.632;2023-07-16T02:36:52;15.00;99.90
63537;DHT22;49686;51.880;5.632;2023-07-16T02:39:20;15.00;99.90
63537;DHT22;49686;51.880;5.632;2023-07-16T02:41:47;15.00;99.90
63537;DHT22;49686;51.880;5.632;2023-07-16T02:44:14;14.90;99.90
63537;DHT22;49686;51.880;5.632;2023-07-16T02:46:41;14.80;99.90
63537;DHT22;49686;51.880;5.632;2023-07-16T02:49:08;14.80;99.90
63537;DHT22;49686;51.880;5.632;2023-07-16T02:51:35;14.70;99.90
63537;DHT22;49686;51.880;5.632;2023-07-16T02:54:03;14.70;99.90
63537;DHT22;49686;51.880;5.632;2023-07-16T02:56:31;14.60;99.90
63537;DHT22;49686;51.880;5.632;2023-07-16T02:58:58;14.60;99.90
63537;DHT22;49686;51.880;5.632;2023-07-16T03:01:26;14.50;99.90
63537;DHT22;49686;51.880;5.632;2023-07-16T03:03:53;14.50;99.90
63537;DHT22;49686;51.880;5.632;2023-07-16T03:06:20;14.50;99.90
63537;DHT22;49686;51.880;5.632;2023-07-16T03:08:48;14.50;99.90
63537;DHT22;49686;51.880;5.632;2023-07-16T03:11:15;14.50;99.90
63537;DHT22;49686;51.880;5.632;2023-07-16T03:13:43;14.50;99.90
63537;DHT22;49686;51.880;5.632;2023-07-16T03:16:10;14.50;99.90
63537;DHT22;49686;51.880;5.632;2023-07-16T03:18:37;14.60;99.90
63537;DHT22;49686;51.880;5.632;2023-07-16T03:21:04;14.70;99.90
63537;DHT22;49686;51.880;5.632;2023-07-16T03:23:31;14.90;99.90
63537;DHT22;49686;51.880;5.632;2023-07-16T03:25:57;14.90;99.90
63537;DHT22;49686;51.880;5.632;2023-07-16T03:28:25;15.00;99.90
63537;DHT22;49686;51.880;5.632;2023-07-16T03:30:54;15.00;99.90
63537;DHT22;49686;51.880;5.632;2023-07-16T03:33:21;15.00;99.90
63537;DHT22;49686;51.880;5.632;2023-07-16T03:35:49;15.10;99.90
63537;DHT22;49686;51.880;5.632;2023-07-16T03:38:16;15.20;99.90
63537;DHT22;49686;51.880;5.632;2023-07-16T03:40:45;15.30;99.90
63537;DHT22;49686;51.880;5.632;2023-07-16T03:43:12;15.30;99.90
63537;DHT22;49686;51.880;5.632;2023-07-16T03:45:39;15.40;99.90
63537;DHT22;49686;51.880;5.632;2023-07-16T03:48:07;15.50;99.90
63537;DHT22;49686;51.880;5.632;2023-07-16T03:50:35;15.60;99.90
63537;DHT22;49686;51.880;5.632;2023-07-16T03:53:02;15.60;99.90
63537;DHT22;49686;51.880;5.632;2023-07-16T03:55:29;15.60;99.90
63537;DHT22;49686;51.880;5.632;2023-07-16T03:57:56;15.60;99.90
63537;DHT22;49686;51.880;5.632;2023-07-16T04:00:23;15.60;99.90
63537;DHT22;49686;51.880;5.632;2023-07-16T04:02:50;15.50;99.90
63537;DHT22;49686;51.880;5.632;2023-07-16T04:05:19;15.50;99.90
63537;DHT22;49686;51.880;5.632;2023-07-16T04:07:50;15.50;99.90
63537;DHT22;49686;51.880;5.632;2023-07-16T04:10:16;15.50;99.90
63537;DHT22;49686;51.880;5.632;2023-07-16T04:12:45;15.50;99.90
63537;DHT22;49686;51.880;5.632;2023-07-16T04:15:11;15.50;99.90
63537;DHT22;49686;51.880;5.632;2023-07-16T04:17:39;15.40;99.90
63537;DHT22;49686;51.880;5.632;2023-07-16T04:20:07;15.50;99.90
63537;DHT22;49686;51.880;5.632;2023-07-16T04:22:36;15.50;99.90
63537;DHT22;49686;51.880;5.632;2023-07-16T04:25:03;15.50;99.90
63537;DHT22;49686;51.880;5.632;2023-07-16T04:27:31;15.50;99.90
63537;DHT22;49686;51.880;5.632;2023-07-16T04:29:57;15.60;99.90
63537;DHT22;49686;51.880;5.632;2023-07-16T04:32:26;15.70;99.90
63537;DHT22;49686;51.880;5.632;2023-07-16T04:34:52;16.00;99.90
63537;DHT22;49686;51.880;5.632;2023-07-16T04:37:19;16.40;99.90
63537;DHT22;49686;51.880;5.632;2023-07-16T04:39:50;16.90;99.90
63537;DHT22;49686;51.880;5.632;2023-07-16T04:42:17;17.20;99.90
63537;DHT22;49686;51.880;5.632;2023-07-16T04:44:44;17.50;99.90
63537;DHT22;49686;51.880;5.632;2023-07-16T04:47:11;17.80;99.90
63537;DHT22;49686;51.880;5.632;2023-07-16T04:49:40;17.50;99.90
63537;DHT22;49686;51.880;5.632;2023-07-16T04:52:07;17.50;99.90
63537;DHT22;49686;51.880;5.632;2023-07-16T04:54:35;18.00;99.90
63537;DHT22;49686;51.880;5.632;2023-07-16T04:57:05;17.90;99.90
63537;DHT22;49686;51.880;5.632;2023-07-16T04:59:32;17.60;99.90
63537;DHT22;49686;51.880;5.632;2023-07-16T05:01:59;17.70;99.90
63537;DHT22;49686;51.880;5.632;2023-07-16T05:04:26;18.10;99.90
63537;DHT22;49686;51.880;5.632;2023-07-16T05:06:53;18.20;99.90
63537;DHT22;49686;51.880;5.632;2023-07-16T05:09:20;18.40;99.90
63537;DHT22;49686;51.880;5.632;2023-07-16T05:11:46;18.80;99.90
63537;DHT22;49686;51.880;5.632;2023-07-16T05:14:14;18.60;99.90
63537;DHT22;49686;51.880;5.632;2023-07-16T05:16:41;18.20;99.90
63537;DHT22;49686;51.880;5.632;2023-07-16T05:19:08;18.00;99.90
63537;DHT22;49686;51.880;5.632;2023-07-16T05:21:35;18.40;99.90
63537;DHT22;49686;51.880;5.632;2023-07-16T05:24:02;18.80;99.90
63537;DHT22;49686;51.880;5.632;2023-07-16T05:26:29;19.10;99.90
63537;DHT22;49686;51.880;5.632;2023-07-16T05:28:56;19.40;99.90
63537;DHT22;49686;51.880;5.632;2023-07-16T05:31:24;19.70;99.90
63537;DHT22;49686;51.880;5.632;2023-07-16T05:33:51;19.60;99.90
63537;DHT22;49686;51.880;5.632;2023-07-16T05:36:18;19.60;99.90
63537;DHT22;49686;51.880;5.632;2023-07-16T05:38:45;19.00;99.90
63537;DHT22;49686;51.880;5.632;2023-07-16T05:41:12;19.30;99.90
63537;DHT22;49686;51.880;5.632;2023-07-16T05:43:39;19.80;99.90
63537;DHT22;49686;51.880;5.632;2023-07-16T05:46:08;19.90;99.90
63537;DHT22;49686;51.880;5.632;2023-07-16T05:48:36;19.70;99.90
63537;DHT22;49686;51.880;5.632;2023-07-16T05:51:04;19.30;99.90
63537;DHT22;49686;51.880;5.632;2023-07-16T05:53:31;19.50;99.90
63537;DHT22;49686;51.880;5.632;2023-07-16T05:55:58;19.30;99.90
63537;DHT22;49686;51.880;5.632;2023-07-16T05:58:25;19.10;99.90
63537;DHT22;49686;51.880;5.632;2023-07-16T06:00:51;19.30;99.90
63537;DHT22;49686;51.880;5.632;2023-07-16T06:03:18;19.90;99.90
63537;DHT22;49686;51.880;5.632;2023-07-16T06:05:46;19.60;99.90
63537;DHT22;49686;51.880;5.632;2023-07-16T06:08:13;18.90;99.90
63537;DHT22;49686;51.880;5.632;2023-07-16T06:10:40;19.40;99.90
63537;DHT22;49686;51.880;5.632;2023-07-16T06:13:07;19.50;99.90
63537;DHT22;49686;51.880;5.632;2023-07-16T06:15:34;20.00;99.90
63537;DHT22;49686;51.880;5.632;2023-07-16T06:18:01;19.10;99.90
63537;DHT22;49686;51.880;5.632;2023-07-16T06:20:28;19.00;99.90
63537;DHT22;49686;51.880;5.632;2023-07-16T06:22:56;19.10;99.90
63537;DHT22;49686;51.880;5.632;2023-07-16T06:25:24;19.60;99.90
63537;DHT22;49686;51.880;5.632;2023-07-16T06:27:52;19.60;99.90
63537;DHT22;49686;51.880;5.632;2023-07-16T06:30:19;19.50;99.90
63537;DHT22;49686;51.880;5.632;2023-07-16T06:32:46;19.90;99.90
63537;DHT22;49686;51.880;5.632;2023-07-16T06:35:13;20.00;99.90
63537;DHT22;49686;51.880;5.632;2023-07-16T06:37:39;20.00;99.90
63537;DHT22;49686;51.880;5.632;2023-07-16T06:40:08;19.50;99.90
63537;DHT22;49686;51.880;5.632;2023-07-16T06:42:35;19.30;99.90
63537;DHT22;49686;51.880;5.632;2023-07-16T06:45:02;19.30;99.90
63537;DHT22;49686;51.880;5.632;2023-07-16T06:47:29;20.00;99.90
63537;DHT22;49686;51.880;5.632;2023-07-16T06:49:56;20.10;99.90
63537;DHT22;49686;51.880;5.632;2023-07-16T06:52:24;20.30;99.90
63537;DHT22;49686;51.880;5.632;2023-07-16T06:54:52;20.20;99.90
63537;DHT22;49686;51.880;5.632;2023-07-16T06:57:20;20.60;99.90
63537;DHT22;49686;51.880;5.632;2023-07-16T06:59:47;20.10;99.90
63537;DHT22;49686;51.880;5.632;2023-07-16T07:02:15;19.70;99.90
63537;DHT22;49686;51.880;5.632;2023-07-16T07:04:42;20.30;99.90
63537;DHT22;49686;51.880;5.632;2023-07-16T07:07:09;21.40;99.90
63537;DHT22;49686;51.880;5.632;2023-07-16T07:09:36;21.40;99.90
63537;DHT22;49686;51.880;5.632;2023-07-16T07:12:04;21.80;99.90
63537;DHT22;49686;51.880;5.632;2023-07-16T07:14:32;21.20;99.90
63537;DHT22;49686;51.880;5.632;2023-07-16T07:16:59;22.00;99.90
63537;DHT22;49686;51.880;5.632;2023-07-16T07:19:27;21.60;99.90
63537;DHT22;49686;51.880;5.632;2023-07-16T07:21:54;21.60;99.90
63537;DHT22;49686;51.880;5.632;2023-07-16T07:24:22;20.60;99.90
63537;DHT22;49686;51.880;5.632;2023-07-16T07:26:49;21.10;99.90
63537;DHT22;49686;51.880;5.632;2023-07-16T07:29:15;21.80;99.90
63537;DHT22;49686;51.880;5.632;2023-07-16T07:31:44;21.70;99.90
63537;DHT22;49686;51.880;5.632;2023-07-16T07:34:10;21.20;99.90
63537;DHT22;49686;51.880;5.632;2023-07-16T07:36:37;21.30;99.90
63537;DHT22;49686;51.880;5.632;2023-07-16T07:39:04;20.90;99.90
63537;DHT22;49686;51.880;5.632;2023-07-16T07:41:31;21.10;99.90
63537;DHT22;49686;51.880;5.632;2023-07-16T07:43:58;21.20;99.90
63537;DHT22;49686;51.880;5.632;2023-07-16T07:46:25;20.90;99.90
63537;DHT22;49686;51.880;5.632;2023-07-16T07:48:53;20.90;99.90
63537;DHT22;49686;51.880;5.632;2023-07-16T07:51:20;21.80;99.90
63537;DHT22;49686;51.880;5.632;2023-07-16T07:53:47;21.20;99.90
63537;DHT22;49686;51.880;5.632;2023-07-16T07:56:13;21.50;99.90
63537;DHT22;49686;51.880;5.632;2023-07-16T07:58:41;22.10;99.90
63537;DHT22;49686;51.880;5.632;2023-07-16T08:01:08;22.10;99.90
63537;DHT22;49686;51.880;5.632;2023-07-16T08:03:35;21.20;99.90
63537;DHT22;49686;51.880;5.632;2023-07-16T08:06:04;21.40;99.90
63537;DHT22;49686;51.880;5.632;2023-07-16T08:08:31;21.10;99.90
63537;DHT22;49686;51.880;5.632;2023-07-16T08:10:57;20.60;99.90
63537;DHT22;49686;51.880;5.632;2023-07-16T08:13:24;20.30;99.90
63537;DHT22;49686;51.880;5.632;2023-07-16T08:15:51;19.90;99.90
63537;DHT22;49686;51.880;5.632;2023-07-16T08:18:18;19.80;99.90
63537;DHT22;49686;51.880;5.632;2023-07-16T08:20:46;20.10;99.90
63537;DHT22;49686;51.880;5.632;2023-07-16T08:23:15;20.60;99.90
63537;DHT22;49686;51.880;5.632;2023-07-16T08:25:42;21.00;99.90
63537;DHT22;49686;51.880;5.632;2023-07-16T08:28:09;21.20;99.90
63537;DHT22;49686;51.880;5.632;2023-07-16T08:30:36;21.30;99.90
63537;DHT22;49686;51.880;5.632;2023-07-16T08:33:03;21.50;99.90
63537;DHT22;49686;51.880;5.632;2023-07-16T08:35:30;22.00;99.90
63537;DHT22;49686;51.880;5.632;2023-07-16T08:37:57;22.50;99.90
63537;DHT22;49686;51.880;5.632;2023-07-16T08:40:26;22.40;99.90
63537;DHT22;49686;51.880;5.632;2023-07-16T08:42:53;21.90;99.90
63537;DHT22;49686;51.880;5.632;2023-07-16T08:45:21;21.70;99.90
63537;DHT22;49686;51.880;5.632;2023-07-16T08:47:49;21.80;99.90
63537;DHT22;49686;51.880;5.632;2023-07-16T08:50:16;21.30;99.90
63537;DHT22;49686;51.880;5.632;2023-07-16T08:52:45;20.90;99.90
63537;DHT22;49686;51.880;5.632;2023-07-16T08:55:12;20.30;99.90
63537;DHT22;49686;51.880;5.632;2023-07-16T08:57:41;20.20;99.90
63537;DHT22;49686;51.880;5.632;2023-07-16T09:00:10;20.50;99.90
63537;DHT22;49686;51.880;5.632;2023-07-16T09:02:38;20.70;99.90
63537;DHT22;49686;51.880;5.632;2023-07-16T09:05:09;20.80;99.90
63537;DHT22;49686;51.880;5.632;2023-07-16T09:07:46;20.80;99.90
63537;DHT22;49686;51.880;5.632;2023-07-16T09:10:13;20.80;99.90
63537;DHT22;49686;51.880;5.632;2023-07-16T09:12:43;20.90;99.90
63537;DHT22;49686;51.880;5.632;2023-07-16T09:15:10;21.10;99.90
63537;DHT22;49686;51.880;5.632;2023-07-16T09:17:37;20.90;99.90
63537;DHT22;49686;51.880;5.632;2023-07-16T09:20:05;20.80;99.90
63537;DHT22;49686;51.880;5.632;2023-07-16T09:22:33;20.30;99.90
63537;DHT22;49686;51.880;5.632;2023-07-16T09:25:00;19.80;99.90
63537;DHT22;49686;51.880;5.632;2023-07-16T09:27:28;19.50;99.90
63537;DHT22;49686;51.880;5.632;2023-07-16T09:29:56;19.50;99.90
63537;DHT22;49686;51.880;5.632;2023-07-16T09:32:32;19.60;99.90
63537;DHT22;49686;51.880;5.632;2023-07-16T09:34:59;19.50;99.90
63537;DHT22;49686;51.880;5.632;2023-07-16T09:37:27;19.30;99.90
63537;DHT22;49686;51.880;5.632;2023-07-16T09:39:55;19.30;99.90
63537;DHT22;49686;51.880;5.632;2023-07-16T09:42:23;19.40;99.90
63537;DHT22;49686;51.880;5.632;2023-07-16T09:44:53;19.70;99.90
63537;DHT22;49686;51.880;5.632;2023-07-16T09:47:21;20.20;99.90
63537;DHT22;49686;51.880;5.632;2023-07-16T09:49:51;20.10;99.90
63537;DHT22;49686;51.880;5.632;2023-07-16T09:52:18;20.10;99.90
63537;DHT22;49686;51.880;5.632;2023-07-16T09:54:46;20.30;99.90
63537;DHT22;49686;51.880;5.632;2023-07-16T09:57:14;20.50;99.90
63537;DHT22;49686;51.880;5.632;2023-07-16T09:59:41;20.80;99.90
63537;DHT22;49686;51.880;5.632;2023-07-16T10:02:08;21.40;99.90
63537;DHT22;49686;51.880;5.632;2023-07-16T10:04:40;21.40;99.90
63537;DHT22;49686;51.880;5.632;2023-07-16T10:07:17;21.00;99.90
63537;DHT22;49686;51.880;5.632;2023-07-16T10:09:51;20.60;99.90
63537;DHT22;49686;51.880;5.632;2023-07-16T10:12:20;20.80;99.90
63537;DHT22;49686;51.880;5.632;2023-07-16T10:14:48;21.20;99.90
63537;DHT22;49686;51.880;5.632;2023-07-16T10:17:17;21.00;99.90
63537;DHT22;49686;51.880;5.632;2023-07-16T10:19:54;21.00;99.90
63537;DHT22;49686;51.880;5.632;2023-07-16T10:22:32;21.10;99.90
63537;DHT22;49686;51.880;5.632;2023-07-16T10:24:59;21.10;99.90
63537;DHT22;49686;51.880;5.632;2023-07-16T10:27:27;21.00;99.90
63537;DHT22;49686;51.880;5.632;2023-07-16T10:29:54;20.90;99.90
63537;DHT22;49686;51.880;5.632;2023-07-16T10:32:21;20.70;99.90
63537;DHT22;49686;51.880;5.632;2023-07-16T10:34:48;20.80;99.90
63537;DHT22;49686;51.880;5.632;2023-07-16T10:37:16;20.90;99.90
63537;DHT22;49686;51.880;5.632;2023-07-16T10:39:47;20.80;99.90
63537;DHT22;49686;51.880;5.632;2023-07-16T10:42:15;20.90;99.90
63537;DHT22;49686;51.880;5.632;2023-07-16T10:44:42;21.00;99.90
63537;DHT22;49686;51.880;5.632;2023-07-16T10:47:17;21.10;99.90
63537;DHT22;49686;51.880;5.632;2023-07-16T10:49:44;20.70;99.90
63537;DHT22;49686;51.880;5.632;2023-07-16T10:52:11;20.50;99.90
63537;DHT22;49686;51.880;5.632;2023-07-16T10:54:40;20.40;99.90
63537;DHT22;49686;51.880;5.632;2023-07-16T10:57:07;20.20;99.90
63537;DHT22;49686;51.880;5.632;2023-07-16T10:59:37;20.00;99.90
63537;DHT22;49686;51.880;5.632;2023-07-16T11:02:04;19.90;99.90
63537;DHT22;49686;51.880;5.632;2023-07-16T11:04:33;19.90;99.90
63537;DHT22;49686;51.880;5.632;2023-07-16T11:07:04;20.10;99.90
63537;DHT22;49686;51.880;5.632;2023-07-16T11:09:32;20.40;99.90
63537;DHT22;49686;51.880;5.632;2023-07-16T11:12:06;20.40;99.90
63537;DHT22;49686;51.880;5.632;2023-07-16T11:14:33;20.30;99.90
63537;DHT22;49686;51.880;5.632;2023-07-16T11:17:04;20.40;99.90
63537;DHT22;49686;51.880;5.632;2023-07-16T11:19:31;20.50;99.90
63537;DHT22;49686;51.880;5.632;2023-07-16T11:21:59;20.80;99.90
63537;DHT22;49686;51.880;5.632;2023-07-16T11:24:25;20.80;99.90
63537;DHT22;49686;51.880;5.632;2023-07-16T11:26:54;20.50;99.90
63537;DHT22;49686;51.880;5.632;2023-07-16T11:29:22;20.40;99.90
63537;DHT22;49686;51.880;5.632;2023-07-16T11:31:50;19.70;99.90
63537;DHT22;49686;51.880;5.632;2023-07-16T11:34:19;19.50;99.90
63537;DHT22;49686;51.880;5.632;2023-07-16T11:36:45;19.30;99.90
63537;DHT22;49686;51.880;5.632;2023-07-16T11:39:17;19.40;99.90
63537;DHT22;49686;51.880;5.632;2023-07-16T11:41:54;19.50;99.90
63537;DHT22;49686;51.880;5.632;2023-07-16T11:44:26;19.80;99.90
63537;DHT22;49686;51.880;5.632;2023-07-16T11:46:52;20.40;99.90
63537;DHT22;49686;51.880;5.632;2023-07-16T11:49:19;21.10;99.90
63537;DHT22;49686;51.880;5.632;2023-07-16T11:51:46;21.00;99.90
63537;DHT22;49686;51.880;5.632;2023-07-16T11:54:13;21.20;99.90
63537;DHT22;49686;51.880;5.632;2023-07-16T11:56:40;20.60;99.90
63537;DHT22;49686;51.880;5.632;2023-07-16T11:59:07;20.70;99.90
63537;DHT22;49686;51.880;5.632;2023-07-16T12:01:35;20.90;99.90
63537;DHT22;49686;51.880;5.632;2023-07-16T12:04:02;21.10;99.90
63537;DHT22;49686;51.880;5.632;2023-07-16T12:06:28;21.20;99.90
63537;DHT22;49686;51.880;5.632;2023-07-16T12:08:55;20.90;99.90
63537;DHT22;49686;51.880;5.632;2023-07-16T12:11:22;20.70;99.90
63537;DHT22;49686;51.880;5.632;2023-07-16T12:13:49;20.80;99.90
63537;DHT22;49686;51.880;5.632;2023-07-16T12:16:16;20.50;99.90
63537;DHT22;49686;51.880;5.632;2023-07-16T12:18:44;20.50;99.90
63537;DHT22;49686;51.880;5.632;2023-07-16T12:21:11;20.90;99.90
63537;DHT22;49686;51.880;5.632;2023-07-16T12:23:38;21.20;99.90
63537;DHT22;49686;51.880;5.632;2023-07-16T12:26:05;21.30;99.90
63537;DHT22;49686;51.880;5.632;2023-07-16T12:28:32;21.20;99.90
63537;DHT22;49686;51.880;5.632;2023-07-16T12:30:58;21.40;99.90
63537;DHT22;49686;51.880;5.632;2023-07-16T12:33:25;21.40;99.90
63537;DHT22;49686;51.880;5.632;2023-07-16T12:35:54;21.30;99.90
63537;DHT22;49686;51.880;5.632;2023-07-16T12:38:21;21.30;99.90
63537;DHT22;49686;51.880;5.632;2023-07-16T12:40:49;21.70;99.90
63537;DHT22;49686;51.880;5.632;2023-07-16T12:43:16;21.50;99.90
63537;DHT22;49686;51.880;5.632;2023-07-16T12:45:43;21.60;99.90
63537;DHT22;49686;51.880;5.632;2023-07-16T12:48:09;22.10;99.90
63537;DHT22;49686;51.880;5.632;2023-07-16T12:50:36;22.80;99.90
63537;DHT22;49686;51.880;5.632;2023-07-16T12:53:04;23.40;99.90
63537;DHT22;49686;51.880;5.632;2023-07-16T12:55:31;22.90;99.90
63537;DHT22;49686;51.880;5.632;2023-07-16T12:57:58;22.70;99.90
63537;DHT22;49686;51.880;5.632;2023-07-16T13:00:25;22.30;99.90
63537;DHT22;49686;51.880;5.632;2023-07-16T13:02:52;22.00;99.90
63537;DHT22;49686;51.880;5.632;2023-07-16T13:05:19;21.50;99.90
63537;DHT22;49686;51.880;5.632;2023-07-16T13:07:46;21.00;99.90
63537;DHT22;49686;51.880;5.632;2023-07-16T13:10:14;20.60;99.90
63537;DHT22;49686;51.880;5.632;2023-07-16T13:12:50;20.70;99.90
63537;DHT22;49686;51.880;5.632;2023-07-16T13:15:16;21.00;99.90
63537;DHT22;49686;51.880;5.632;2023-07-16T13:17:43;21.30;99.90
63537;DHT22;49686;51.880;5.632;2023-07-16T13:20:11;21.00;99.90
63537;DHT22;49686;51.880;5.632;2023-07-16T13:22:38;21.00;99.90
63537;DHT22;49686;51.880;5.632;2023-07-16T13:25:05;21.50;99.90
63537;DHT22;49686;51.880;5.632;2023-07-16T13:27:34;21.90;99.90
63537;DHT22;49686;51.880;5.632;2023-07-16T13:30:01;21.50;99.90
63537;DHT22;49686;51.880;5.632;2023-07-16T13:32:28;22.00;99.90
63537;DHT22;49686;51.880;5.632;2023-07-16T13:34:55;22.00;99.90
63537;DHT22;49686;51.880;5.632;2023-07-16T13:37:22;21.90;99.90
63537;DHT22;49686;51.880;5.632;2023-07-16T13:39:49;22.30;99.90
63537;DHT22;49686;51.880;5.632;2023-07-16T13:42:16;22.80;99.90
63537;DHT22;49686;51.880;5.632;2023-07-16T13:44:52;23.10;99.90
63537;DHT22;49686;51.880;5.632;2023-07-16T13:47:19;23.20;99.90
63537;DHT22;49686;51.880;5.632;2023-07-16T13:49:45;22.70;99.90
63537;DHT22;49686;51.880;5.632;2023-07-16T13:52:12;22.60;99.90
63537;DHT22;49686;51.880;5.632;2023-07-16T13:54:40;22.50;99.90
63537;DHT22;49686;51.880;5.632;2023-07-16T13:57:08;22.80;99.90
63537;DHT22;49686;51.880;5.632;2023-07-16T13:59:35;23.00;99.90
63537;DHT22;49686;51.880;5.632;2023-07-16T14:02:03;23.40;99.90
63537;DHT22;49686;51.880;5.632;2023-07-16T14:04:30;22.80;99.90
63537;DHT22;49686;51.880;5.632;2023-07-16T14:06:58;23.00;99.90
63537;DHT22;49686;51.880;5.632;2023-07-16T14:09:25;22.80;99.90
63537;DHT22;49686;51.880;5.632;2023-07-16T14:11:52;22.50;99.90
63537;DHT22;49686;51.880;5.632;2023-07-16T14:14:20;22.20;99.90
63537;DHT22;49686;51.880;5.632;2023-07-16T14:16:47;22.00;99.90
63537;DHT22;49686;51.880;5.632;2023-07-16T14:19:16;22.00;99.90
63537;DHT22;49686;51.880;5.632;2023-07-16T14:21:43;22.00;99.90
63537;DHT22;49686;51.880;5.632;2023-07-16T14:24:10;22.30;99.90
63537;DHT22;49686;51.880;5.632;2023-07-16T14:26:37;22.30;99.90
63537;DHT22;49686;51.880;5.632;2023-07-16T14:29:03;22.10;99.90
63537;DHT22;49686;51.880;5.632;2023-07-16T14:31:30;22.00;99.90
63537;DHT22;49686;51.880;5.632;2023-07-16T14:33:57;22.00;99.90
63537;DHT22;49686;51.880;5.632;2023-07-16T14:36:26;22.20;99.90
63537;DHT22;49686;51.880;5.632;2023-07-16T14:38:53;22.30;99.90
63537;DHT22;49686;51.880;5.632;2023-07-16T14:41:20;22.60;99.90
63537;DHT22;49686;51.880;5.632;2023-07-16T14:43:47;22.70;99.90
63537;DHT22;49686;51.880;5.632;2023-07-16T14:46:14;23.00;99.90
63537;DHT22;49686;51.880;5.632;2023-07-16T14:48:42;23.30;99.60
63537;DHT22;49686;51.880;5.632;2023-07-16T14:51:08;23.40;99.90
63537;DHT22;49686;51.880;5.632;2023-07-16T14:53:37;23.20;98.10
63537;DHT22;49686;51.880;5.632;2023-07-16T14:56:04;23.10;99.50
63537;DHT22;49686;51.880;5.632;2023-07-16T14:58:31;22.90;99.90
63537;DHT22;49686;51.880;5.632;2023-07-16T15:00:59;23.00;99.90
63537;DHT22;49686;51.880;5.632;2023-07-16T15:03:26;23.00;99.90
63537;DHT22;49686;51.880;5.632;2023-07-16T15:05:56;23.00;99.90
63537;DHT22;49686;51.880;5.632;2023-07-16T15:08:23;22.90;99.60
63537;DHT22;49686;51.880;5.632;2023-07-16T15:10:51;22.60;99.90
63537;DHT22;49686;51.880;5.632;2023-07-16T15:13:18;22.30;99.90
63537;DHT22;49686;51.880;5.632;2023-07-16T15:15:47;22.30;99.90
63537;DHT22;49686;51.880;5.632;2023-07-16T15:18:15;22.40;99.90
63537;DHT22;49686;51.880;5.632;2023-07-16T15:20:42;22.50;99.90
63537;DHT22;49686;51.880;5.632;2023-07-16T15:23:08;22.30;99.90
63537;DHT22;49686;51.880;5.632;2023-07-16T15:25:36;22.30;99.90
63537;DHT22;49686;51.880;5.632;2023-07-16T15:28:04;22.40;99.90
63537;DHT22;49686;51.880;5.632;2023-07-16T15:30:31;22.50;99.90
63537;DHT22;49686;51.880;5.632;2023-07-16T15:32:58;22.80;99.90